Time;durP1;ratioP1;P1;durP2;ratioP2;P2;SDS_P1;SDS_P2;PMS_P1;PMS_P2;Temp;Humidity;BMP_temperature;BMP_pressure;BME280_temperature;BME280_humidity;BME280_pressure;Samples;Min_cycle;Max_cycle;Signal;HPM_P1;HPM_P2
2021/04/14 00:01:45;;;;;;;27.07;14.60;;;;;;;;;;6210678;23;20163;-90
2021/04/14 00:04:50;;;;;;;25.67;14.60;;;;;;;;;;6212401;23;20175;-88
2021/04/14 00:07:55;;;;;;;27.77;14.57;;;;;;;;;;6210040;23;20226;-92
2021/04/14 00:10:59;;;;;;;24.27;13.70;;;;;;;;;;6210041;23;20229;-89
2021/04/14 00:14:04;;;;;;;25.90;14.47;;;;;;;;;;6226458;22;20191;-90
2021/04/14 00:17:09;;;;;;;24.20;13.00;;;;;;;;;;6208721;23;20163;-92
2021/04/14 00:20:16;;;;;;;26.30;13.80;;;;;;;;;;6208633;23;20195;-90
2021/04/14 00:23:22;;;;;;;27.77;14.00;;;;;;;;;;6210643;23;20179;-91
2021/04/14 00:26:27;;;;;;;27.37;14.90;;;;;;;;;;6210134;23;20190;-90
2021/04/14 00:29:31;;;;;;;26.10;13.70;;;;;;;;;;6210783;23;20501;-89
2021/04/14 00:32:36;;;;;;;27.03;14.30;;;;;;;;;;6211068;23;20166;-89
2021/04/14 00:35:41;;;;;;;23.93;13.70;;;;;;;;;;6210584;23;20619;-89
2021/04/14 00:38:45;;;;;;;25.93;13.43;;;;;;;;;;6211477;22;20211;-88
2021/04/14 00:41:51;;;;;;;23.70;13.43;;;;;;;;;;6209757;23;20172;-91
2021/04/14 00:44:55;;;;;;;27.20;14.10;;;;;;;;;;6210468;23;20218;-91
2021/04/14 00:48:00;;;;;;;24.10;13.63;;;;;;;;;;6208762;23;20237;-90
2021/04/14 00:51:06;;;;;;;24.30;14.03;;;;;;;;;;6209068;23;20235;-91
2021/04/14 00:54:13;;;;;;;25.70;13.77;;;;;;;;;;6208019;23;20151;-90
2021/04/14 00:57:18;;;;;;;26.83;14.23;;;;;;;;;;6209197;23;20175;-90
2021/04/14 01:00:27;;;;;;;27.87;14.20;;;;;;;;;;6209201;23;20198;-87
2021/04/14 01:03:34;;;;;;;26.73;14.10;;;;;;;;;;6209202;23;20171;-88
2021/04/14 01:06:43;;;;;;;26.63;13.93;;;;;;;;;;6209335;23;20195;-88
2021/04/14 01:09:47;;;;;;;24.83;13.40;;;;;;;;;;6209911;22;20163;-88
2021/04/14 01:12:52;;;;;;;23.83;13.07;;;;;;;;;;6210065;23;20242;-87
2021/04/14 01:15:57;;;;;;;28.00;14.47;;;;;;;;;;6209895;23;20171;-87
2021/04/14 01:19:02;;;;;;;27.97;14.77;;;;;;;;;;6210272;23;20183;-88
2021/04/14 01:22:07;;;;;;;27.33;14.07;;;;;;;;;;6210473;23;20214;-87
2021/04/14 01:25:12;;;;;;;25.93;13.77;;;;;;;;;;6210818;23;20243;-88
2021/04/14 01:28:18;;;;;;;26.43;14.23;;;;;;;;;;6209202;23;20199;-87
2021/04/14 01:31:32;;;;;;;29.57;14.43;;;;;;;;;;6227012;23;20170;-90
2021/04/14 01:34:36;;;;;;;30.17;14.97;;;;;;;;;;6211345;22;20215;-89
2021/04/14 01:37:42;;;;;;;31.23;14.70;;;;;;;;;;6209768;23;20659;-88
2021/04/14 01:40:47;;;;;;;27.17;14.67;;;;;;;;;;6210263;23;20187;-90
2021/04/14 01:43:51;;;;;;;25.77;13.93;;;;;;;;;;6209362;23;20190;-88
2021/04/14 01:46:56;;;;;;;26.47;13.50;;;;;;;;;;6209797;23;20220;-91
2021/04/14 01:50:01;;;;;;;29.60;14.70;;;;;;;;;;6210394;23;20175;-88
2021/04/14 01:53:08;;;;;;;28.33;14.97;;;;;;;;;;6227145;23;20246;-88
2021/04/14 01:56:12;;;;;;;26.43;14.10;;;;;;;;;;6207922;23;20194;-89
2021/04/14 01:59:16;;;;;;;29.23;14.20;;;;;;;;;;6210273;23;20167;-88
2021/04/14 02:02:21;;;;;;;27.03;14.73;;;;;;;;;;6208854;23;20175;-89
2021/04/14 02:05:26;;;;;;;25.93;14.30;;;;;;;;;;6208737;23;20160;-89
2021/04/14 02:08:32;;;;;;;24.80;13.50;;;;;;;;;;6209553;22;20237;-88
2021/04/14 02:11:36;;;;;;;26.10;13.63;;;;;;;;;;6209654;23;20193;-91
2021/04/14 02:14:41;;;;;;;24.67;14.03;;;;;;;;;;6209187;23;20203;-88
2021/04/14 02:17:46;;;;;;;23.07;13.10;;;;;;;;;;6209307;23;20179;-91
2021/04/14 02:20:51;;;;;;;28.13;13.87;;;;;;;;;;6207935;23;20401;-87
2021/04/14 02:23:56;;;;;;;26.87;13.67;;;;;;;;;;6208670;22;20171;-90
2021/04/14 02:27:00;;;;;;;26.53;13.83;;;;;;;;;;6206964;23;20199;-90
2021/04/14 02:30:06;;;;;;;27.83;13.43;;;;;;;;;;6209231;23;20170;-89
2021/04/14 02:33:11;;;;;;;27.67;14.20;;;;;;;;;;6210344;23;20270;-88
2021/04/14 02:36:15;;;;;;;27.77;14.67;;;;;;;;;;6210535;23;20598;-87
2021/04/14 02:39:21;;;;;;;27.50;13.97;;;;;;;;;;6209312;23;20171;-89
2021/04/14 02:42:26;;;;;;;28.57;14.47;;;;;;;;;;6209808;23;20623;-89
2021/04/14 02:45:31;;;;;;;26.10;13.63;;;;;;;;;;6209320;23;20222;-89
2021/04/14 02:48:36;;;;;;;26.50;13.73;;;;;;;;;;6209506;23;20295;-89
2021/04/14 02:51:40;;;;;;;26.00;14.27;;;;;;;;;;6209658;23;20560;-88
2021/04/14 02:54:45;;;;;;;26.13;14.50;;;;;;;;;;6226030;23;20191;-89
2021/04/14 02:57:50;;;;;;;27.97;14.87;;;;;;;;;;6209601;23;20211;-88
2021/04/14 03:00:55;;;;;;;26.13;14.30;;;;;;;;;;6210411;23;20168;-89
2021/04/14 03:04:00;;;;;;;36.63;14.50;;;;;;;;;;6209915;23;20167;-89
2021/04/14 03:07:06;;;;;;;26.20;13.77;;;;;;;;;;6208800;23;20190;-89
2021/04/14 03:10:13;;;;;;;27.03;13.87;;;;;;;;;;6209688;23;20171;-87
2021/04/14 03:13:18;;;;;;;26.20;13.60;;;;;;;;;;6209105;23;20175;-88
2021/04/14 03:16:23;;;;;;;30.63;14.30;;;;;;;;;;6209139;23;20166;-90
2021/04/14 03:19:28;;;;;;;27.90;14.10;;;;;;;;;;6226304;23;20167;-88
2021/04/14 03:22:33;;;;;;;31.10;13.93;;;;;;;;;;6209922;22;20150;-89
2021/04/14 03:25:38;;;;;;;27.97;14.70;;;;;;;;;;6210001;23;20199;-89
2021/04/14 03:28:43;;;;;;;28.07;14.30;;;;;;;;;;6208744;23;20243;-88
2021/04/14 03:31:50;;;;;;;31.10;14.90;;;;;;;;;;6211708;23;20167;-88
2021/04/14 03:34:54;;;;;;;29.27;14.53;;;;;;;;;;6209394;23;20162;-90
2021/04/14 03:38:01;;;;;;;27.87;15.03;;;;;;;;;;6210152;23;20170;-89
2021/04/14 03:41:06;;;;;;;29.27;13.77;;;;;;;;;;6210408;23;20255;-88
2021/04/14 03:44:10;;;;;;;27.37;14.50;;;;;;;;;;6208682;23;20171;-88
2021/04/14 03:47:15;;;;;;;26.90;14.47;;;;;;;;;;6207608;23;20210;-88
2021/04/14 03:50:21;;;;;;;29.10;15.23;;;;;;;;;;6209343;23;20259;-88
2021/04/14 03:53:30;;;;;;;26.70;14.00;;;;;;;;;;6208778;22;20182;-88
2021/04/14 03:56:36;;;;;;;26.33;14.20;;;;;;;;;;6208602;23;20219;-89
2021/04/14 03:59:40;;;;;;;26.90;15.17;;;;;;;;;;6225718;23;20194;-93
2021/04/14 04:02:46;;;;;;;29.10;13.40;;;;;;;;;;6207138;23;20190;-89
2021/04/14 04:05:51;;;;;;;28.70;14.70;;;;;;;;;;6209457;23;20227;-87
2021/04/14 04:08:56;;;;;;;30.10;14.37;;;;;;;;;;6208669;23;20225;-88
2021/04/14 04:12:05;;;;;;;29.63;14.40;;;;;;;;;;6210263;23;20164;-91
2021/04/14 04:15:12;;;;;;;30.60;15.77;;;;;;;;;;6209680;23;20171;-88
2021/04/14 04:18:17;;;;;;;29.37;14.97;;;;;;;;;;6208532;23;20279;-89
2021/04/14 04:21:22;;;;;;;27.30;14.10;;;;;;;;;;6208135;23;20171;-88
2021/04/14 04:24:27;;;;;;;26.60;14.10;;;;;;;;;;6225752;23;20572;-90
2021/04/14 04:27:33;;;;;;;27.93;14.53;;;;;;;;;;6209399;23;20190;-89
2021/04/14 04:30:39;;;;;;;27.10;13.73;;;;;;;;;;6210115;23;20199;-88
2021/04/14 04:33:44;;;;;;;30.50;13.53;;;;;;;;;;6210301;23;20272;-89
2021/04/14 04:37:14;;;;;;;23.97;13.47;;;;;;;;;;6227619;23;20167;-89
2021/04/14 04:40:20;;;;;;;25.77;13.03;;;;;;;;;;6207805;23;20187;-89
2021/04/14 04:43:25;;;;;;;24.63;12.43;;;;;;;;;;6226346;22;20263;-89
2021/04/14 04:46:55;;;;;;;27.83;13.80;;;;;;;;;;6208923;23;20630;-90
2021/04/14 04:50:01;;;;;;;29.03;13.40;;;;;;;;;;6208785;23;20178;-89
2021/04/14 04:53:08;;;;;;;24.10;12.40;;;;;;;;;;6210076;23;20179;-90
2021/04/14 04:56:13;;;;;;;28.83;12.20;;;;;;;;;;6212063;23;20229;-90
2021/04/14 04:59:19;;;;;;;38.27;12.67;;;;;;;;;;6212921;23;20550;-90
2021/04/14 05:02:24;;;;;;;24.93;11.60;;;;;;;;;;6211364;23;20171;-91
2021/04/14 05:05:29;;;;;;;22.33;11.43;;;;;;;;;;6211996;23;20240;-89
2021/04/14 05:08:34;;;;;;;23.93;12.13;;;;;;;;;;6210221;23;20182;-90
2021/04/14 05:11:39;;;;;;;29.33;11.30;;;;;;;;;;6212409;22;20155;-90
2021/04/14 05:14:45;;;;;;;22.40;11.23;;;;;;;;;;6210009;23;20171;-89
2021/04/14 05:17:49;;;;;;;22.47;10.80;;;;;;;;;;6209199;23;20187;-88
2021/04/14 05:20:54;;;;;;;22.27;10.57;;;;;;;;;;6208978;23;20283;-91
2021/04/14 05:24:03;;;;;;;22.87;10.60;;;;;;;;;;6209272;23;20179;-89
2021/04/14 05:27:08;;;;;;;19.17;10.30;;;;;;;;;;6208561;23;20175;-90
2021/04/14 05:30:16;;;;;;;21.03;10.37;;;;;;;;;;6208598;22;20187;-90
2021/04/14 05:33:21;;;;;;;18.37;9.67;;;;;;;;;;6208092;23;20195;-90
2021/04/14 05:36:29;;;;;;;20.67;9.80;;;;;;;;;;6207230;23;20279;-89
2021/04/14 05:39:33;;;;;;;18.60;9.33;;;;;;;;;;6209717;23;20171;-88
2021/04/14 05:42:39;;;;;;;17.67;9.23;;;;;;;;;;6209965;23;20174;-89
2021/04/14 05:45:46;;;;;;;19.93;8.63;;;;;;;;;;6207486;23;20222;-89
2021/04/14 05:48:51;;;;;;;18.73;8.57;;;;;;;;;;6225085;23;20257;-89
2021/04/14 05:51:56;;;;;;;17.63;7.33;;;;;;;;;;6225586;23;20174;-91
2021/04/14 05:55:00;;;;;;;12.20;7.07;;;;;;;;;;6208874;23;20510;-89
2021/04/14 05:58:05;;;;;;;17.47;7.70;;;;;;;;;;6227887;23;20183;-90
2021/04/14 06:01:12;;;;;;;15.83;6.73;;;;;;;;;;6227346;23;20191;-90
2021/04/14 06:04:18;;;;;;;17.97;7.70;;;;;;;;;;6209038;23;20213;-90
2021/04/14 06:07:24;;;;;;;11.13;5.77;;;;;;;;;;6229619;23;20206;-91
2021/04/14 06:10:29;;;;;;;13.20;5.53;;;;;;;;;;6228555;23;20171;-89
2021/04/14 06:13:34;;;;;;;9.83;5.20;;;;;;;;;;6211373;23;20214;-90
2021/04/14 06:16:40;;;;;;;9.63;4.47;;;;;;;;;;6210685;23;20191;-89
2021/04/14 06:19:45;;;;;;;16.67;5.53;;;;;;;;;;6211395;23;20191;-88
2021/04/14 06:22:50;;;;;;;11.27;4.00;;;;;;;;;;6211783;23;20243;-89
2021/04/14 06:26:10;;;;;;;11.70;4.90;;;;;;;;;;6226955;23;20226;-89
2021/04/14 06:29:15;;;;;;;11.00;4.90;;;;;;;;;;6228703;23;20228;-89
2021/04/14 06:32:22;;;;;;;11.00;5.90;;;;;;;;;;6228395;23;20516;-89
2021/04/14 06:35:27;;;;;;;13.30;5.33;;;;;;;;;;6213070;23;20171;-88
2021/04/14 06:38:34;;;;;;;7.27;3.83;;;;;;;;;;6228417;23;20677;-90
2021/04/14 06:41:54;;;;;;;9.73;4.70;;;;;;;;;;6209652;23;20170;-90
2021/04/14 06:45:03;;;;;;;7.87;4.33;;;;;;;;;;6210104;23;20174;-90
2021/04/14 06:48:16;;;;;;;10.03;4.27;;;;;;;;;;6209360;23;20211;-88
2021/04/14 06:51:24;;;;;;;8.37;4.10;;;;;;;;;;6210285;23;20253;-90
2021/04/14 06:54:34;;;;;;;10.47;4.40;;;;;;;;;;6227773;23;20194;-90
2021/04/14 06:57:41;;;;;;;11.03;4.07;;;;;;;;;;6209216;23;20216;-89
2021/04/14 07:00:47;;;;;;;9.07;4.17;;;;;;;;;;6226553;23;20174;-90
2021/04/14 07:03:55;;;;;;;24.97;8.97;;;;;;;;;;6226965;23;20183;-88
2021/04/14 07:07:01;;;;;;;14.73;4.57;;;;;;;;;;6228447;23;20168;-89
2021/04/14 07:10:09;;;;;;;9.67;4.50;;;;;;;;;;6207750;23;20187;-89
2021/04/14 07:13:14;;;;;;;7.80;3.90;;;;;;;;;;6209348;23;20196;-91
2021/04/14 07:16:28;;;;;;;10.10;7.07;;;;;;;;;;6227713;23;20170;-91
2021/04/14 07:19:54;;;;;;;8.93;4.50;;;;;;;;;;6212396;23;20167;-90
2021/04/14 07:23:12;;;;;;;9.40;4.80;;;;;;;;;;6228855;23;20167;-89
2021/04/14 07:26:20;;;;;;;9.68;4.88;;;;;;;;;;6228552;23;20194;-89
2021/04/14 07:29:28;;;;;;;12.23;5.10;;;;;;;;;;6212181;23;20171;-88
2021/04/14 07:32:37;;;;;;;9.10;5.57;;;;;;;;;;6228291;23;20195;-91
2021/04/14 07:35:48;;;;;;;12.90;5.68;;;;;;;;;;6227560;23;20183;-91
2021/04/14 07:38:57;;;;;;;9.90;5.47;;;;;;;;;;6227787;23;20291;-91
2021/04/14 07:42:13;;;;;;;10.25;4.93;;;;;;;;;;6230837;23;20167;-92
2021/04/14 07:45:20;;;;;;;18.95;5.50;;;;;;;;;;6208718;23;20199;-90
2021/04/14 07:48:27;;;;;;;11.13;5.63;;;;;;;;;;6227269;23;20209;-91
2021/04/14 07:51:33;;;;;;;24.73;5.85;;;;;;;;;;6226487;23;20172;-90
2021/04/14 07:54:40;;;;;;;15.20;5.63;;;;;;;;;;6225977;23;20302;-91
2021/04/14 07:57:45;;;;;;;10.75;5.20;;;;;;;;;;6224508;23;20163;-91
2021/04/14 08:00:49;;;;;;;12.23;5.47;;;;;;;;;;6226700;23;20218;-90
2021/04/14 08:04:09;;;;;;;14.68;5.93;;;;;;;;;;6227032;23;20175;-92
2021/04/14 08:07:20;;;;;;;11.57;5.10;;;;;;;;;;6229997;23;20171;-92
2021/04/14 08:10:27;;;;;;;10.57;5.60;;;;;;;;;;6210905;23;20417;-88
2021/04/14 08:13:40;;;;;;;11.18;5.00;;;;;;;;;;6236952;23;20155;-93
2021/04/14 08:16:47;;;;;;;10.10;5.47;;;;;;;;;;6230700;23;20175;-92
2021/04/14 08:19:58;;;;;;;8.60;5.13;;;;;;;;;;6212720;23;20179;-88
2021/04/14 08:23:10;;;;;;;12.98;5.60;;;;;;;;;;6217029;23;20202;-90
2021/04/14 08:26:19;;;;;;;11.20;5.13;;;;;;;;;;6236582;23;20191;-90
2021/04/14 08:29:24;;;;;;;12.80;5.00;;;;;;;;;;6215573;23;20194;-91
2021/04/14 08:32:30;;;;;;;9.60;5.43;;;;;;;;;;6234103;23;20171;-91
2021/04/14 08:35:37;;;;;;;15.60;5.50;;;;;;;;;;6233856;23;20194;-94
2021/04/14 08:38:48;;;;;;;8.55;5.25;;;;;;;;;;6239307;23;20215;-91
2021/04/14 08:41:53;;;;;;;9.45;4.68;;;;;;;;;;6235101;23;20167;-92
2021/04/14 08:45:10;;;;;;;16.15;5.40;;;;;;;;;;6228098;23;20175;-91
2021/04/14 08:48:17;;;;;;;11.25;4.30;;;;;;;;;;6227383;23;20207;-91
2021/04/14 08:51:24;;;;;;;8.70;3.90;;;;;;;;;;6230465;23;20626;-91
2021/04/14 08:54:31;;;;;;;9.90;4.28;;;;;;;;;;6227439;23;20178;-92
2021/04/14 08:57:36;;;;;;;7.78;3.15;;;;;;;;;;6227419;23;20171;-90
2021/04/14 09:00:45;;;;;;;7.68;4.25;;;;;;;;;;6229310;23;20171;-90
2021/04/14 09:03:50;;;;;;;7.72;4.00;;;;;;;;;;6210046;23;20186;-90
2021/04/14 09:06:55;;;;;;;7.13;3.70;;;;;;;;;;6227392;23;20191;-90
2021/04/14 09:10:04;;;;;;;9.32;3.75;;;;;;;;;;6227000;23;20175;-92
2021/04/14 09:13:13;;;;;;;7.88;3.70;;;;;;;;;;6226771;23;20170;-90
2021/04/14 09:16:27;;;;;;;8.70;3.85;;;;;;;;;;6227788;23;20239;-90
2021/04/14 09:19:34;;;;;;;9.68;4.10;;;;;;;;;;6227148;23;20190;-88
2021/04/14 09:22:39;;;;;;;7.65;3.88;;;;;;;;;;6227966;23;20259;-89
2021/04/14 09:25:45;;;;;;;11.20;4.40;;;;;;;;;;6226911;23;20163;-90
2021/04/14 09:28:50;;;;;;;7.50;4.10;;;;;;;;;;6209787;23;20202;-92
2021/04/14 09:31:56;;;;;;;22.53;5.47;;;;;;;;;;6226910;23;20171;-91
2021/04/14 09:35:00;;;;;;;10.37;4.30;;;;;;;;;;6209572;23;20626;-90
2021/04/14 09:38:07;;;;;;;13.18;5.45;;;;;;;;;;6228288;23;20167;-91
2021/04/14 09:41:31;;;;;;;5.22;2.95;;;;;;;;;;6212440;23;20565;-93
2021/04/14 09:44:38;;;;;;;11.18;3.25;;;;;;;;;;6229456;23;20665;-93
2021/04/14 09:47:43;;;;;;;8.45;3.25;;;;;;;;;;6230389;23;20210;-92
2021/04/14 09:50:48;;;;;;;6.90;3.00;;;;;;;;;;6210184;23;20243;-92
2021/04/14 09:53:58;;;;;;;7.70;3.13;;;;;;;;;;6211028;23;20225;-91
2021/04/14 09:57:05;;;;;;;12.05;3.78;;;;;;;;;;6211633;23;20718;-90
2021/04/14 10:00:15;;;;;;;10.82;4.75;;;;;;;;;;6217415;23;20167;-91
2021/04/14 12:38:03;;;;;;;8.07;2.60;;;;;;;;;;6191791;22;20212;-92
2021/04/14 12:41:08;;;;;;;6.03;1.80;;;;;;;;;;6212800;22;20165;-91
2021/04/14 12:44:16;;;;;;;9.27;2.25;;;;;;;;;;6213753;22;20178;-91
2021/04/14 12:47:22;;;;;;;7.50;2.08;;;;;;;;;;6213276;23;20226;-90
2021/04/14 12:50:27;;;;;;;7.68;2.28;;;;;;;;;;6212462;23;20171;-88
2021/04/14 12:53:34;;;;;;;6.60;1.70;;;;;;;;;;6209343;23;20183;-90
2021/04/14 12:56:41;;;;;;;5.65;2.08;;;;;;;;;;6211321;23;20159;-89
2021/04/14 12:59:48;;;;;;;6.88;1.50;;;;;;;;;;6213450;23;20167;-90
2021/04/14 13:02:55;;;;;;;2.67;1.40;;;;;;;;;;6213333;23;20215;-92
2021/04/14 13:06:01;;;;;;;3.35;1.15;;;;;;;;;;6214213;23;20167;-92
2021/04/14 13:09:07;;;;;;;4.18;1.23;;;;;;;;;;6215356;23;20194;-90
2021/04/14 13:12:16;;;;;;;4.55;1.40;;;;;;;;;;6214318;22;20151;-90
2021/04/14 13:15:23;;;;;;;4.32;1.65;;;;;;;;;;6215526;22;20167;-90
2021/04/14 13:18:29;;;;;;;3.70;1.67;;;;;;;;;;6218330;22;20163;-89
2021/04/14 13:21:37;;;;;;;4.18;1.50;;;;;;;;;;6214406;23;20191;-92
2021/04/14 13:24:45;;;;;;;4.85;1.40;;;;;;;;;;6214339;23;20146;-91
2021/04/14 13:27:51;;;;;;;11.50;1.60;;;;;;;;;;6213170;23;20273;-89
2021/04/14 13:30:59;;;;;;;6.38;1.50;;;;;;;;;;6214527;23;20618;-90
2021/04/14 13:34:07;;;;;;;5.05;1.52;;;;;;;;;;6215261;22;20170;-90
2021/04/14 13:37:12;;;;;;;5.38;1.83;;;;;;;;;;6214912;23;20214;-90
2021/04/14 13:43:59;;;;;;;5.10;1.70;;;;;;;;;;6214364;22;20191;-89
2021/04/14 13:47:06;;;;;;;5.60;1.90;;;;;;;;;;6212020;23;20171;-89
2021/04/14 13:50:12;;;;;;;5.70;1.95;;;;;;;;;;6213368;22;20173;-89
2021/04/14 13:53:18;;;;;;;10.70;2.20;;;;;;;;;;6212389;23;20167;-88
2021/04/14 13:56:30;;;;;;;4.13;1.63;;;;;;;;;;6213818;23;20250;-89
2021/04/14 13:59:44;;;;;;;4.95;2.05;;;;;;;;;;6215621;22;20147;-90
2021/04/14 14:02:52;;;;;;;5.82;2.03;;;;;;;;;;6214953;22;20167;-92
2021/04/14 14:05:57;;;;;;;4.68;2.20;;;;;;;;;;6217729;23;20258;-89
2021/04/14 14:09:05;;;;;;;4.25;1.80;;;;;;;;;;6215395;23;20190;-90
2021/04/14 14:12:10;;;;;;;5.90;2.00;;;;;;;;;;6212350;23;20183;-90
2021/04/14 14:15:16;;;;;;;3.88;2.00;;;;;;;;;;6213278;23;20197;-90
2021/04/14 14:18:21;;;;;;;5.65;2.00;;;;;;;;;;6211786;22;20187;-91
2021/04/14 14:21:26;;;;;;;2.72;1.75;;;;;;;;;;6211424;23;20415;-91
2021/04/14 14:24:31;;;;;;;20.00;3.05;;;;;;;;;;6211875;23;20216;-91
2021/04/14 14:27:37;;;;;;;5.03;2.10;;;;;;;;;;6215582;23;20625;-90
2021/04/14 14:30:43;;;;;;;4.38;1.48;;;;;;;;;;6214686;23;20171;-91
2021/04/14 14:33:48;;;;;;;8.13;1.48;;;;;;;;;;6213788;22;20168;-90
2021/04/14 14:36:55;;;;;;;7.60;1.45;;;;;;;;;;6214410;23;20171;-90
2021/04/14 14:40:02;;;;;;;14.45;1.70;;;;;;;;;;6214743;23;20194;-90
2021/04/14 14:43:12;;;;;;;2.83;1.40;;;;;;;;;;6214201;23;20162;-91
2021/04/14 14:46:21;;;;;;;3.92;1.70;;;;;;;;;;6212928;22;20166;-91
2021/04/14 14:49:30;;;;;;;2.53;1.70;;;;;;;;;;6214612;23;20549;-89
2021/04/14 14:52:35;;;;;;;3.17;1.70;;;;;;;;;;6214216;22;20191;-91
2021/04/14 14:55:39;;;;;;;6.75;2.72;;;;;;;;;;6212898;23;20163;-88
2021/04/14 14:58:47;;;;;;;3.70;1.98;;;;;;;;;;6213165;23;20196;-91
2021/04/14 15:01:53;;;;;;;7.13;2.53;;;;;;;;;;6214301;23;20167;-90
2021/04/14 15:04:58;;;;;;;9.03;2.50;;;;;;;;;;6215800;22;20175;-90
2021/04/14 15:08:03;;;;;;;5.60;2.60;;;;;;;;;;6215976;23;20189;-91
2021/04/14 15:11:07;;;;;;;8.00;2.83;;;;;;;;;;6214345;23;20171;-90
2021/04/14 15:14:12;;;;;;;7.93;3.00;;;;;;;;;;6217350;22;20151;-90
2021/04/14 15:17:20;;;;;;;8.13;3.30;;;;;;;;;;6213161;23;20186;-91
2021/04/14 16:30:24;;;;;;;8.17;3.10;;;;;;;;;;6227577;22;20239;-90
2021/04/14 16:33:29;;;;;;;7.17;2.70;;;;;;;;;;6211214;23;20170;-89
2021/04/14 16:36:37;;;;;;;10.53;4.00;;;;;;;;;;6212667;23;20236;-87
2021/04/14 16:39:41;;;;;;;9.53;4.27;;;;;;;;;;6211542;22;20198;-92
2021/04/14 16:42:46;;;;;;;6.70;2.70;;;;;;;;;;6209742;23;20214;-89
2021/04/14 16:46:04;;;;;;;6.67;3.33;;;;;;;;;;6212078;23;20166;-89
2021/04/14 16:49:09;;;;;;;3.80;2.33;;;;;;;;;;6212540;23;20182;-89
2021/04/14 16:52:25;;;;;;;5.23;2.73;;;;;;;;;;6212887;23;20210;-90
2021/04/14 16:55:30;;;;;;;8.17;2.70;;;;;;;;;;6213344;22;20287;-91
2021/04/14 16:58:42;;;;;;;4.10;2.63;;;;;;;;;;6214815;23;20186;-90
2021/04/14 17:01:49;;;;;;;10.50;3.00;;;;;;;;;;6217602;23;20518;-91
2021/04/14 17:04:56;;;;;;;6.07;3.00;;;;;;;;;;6219382;23;20255;-91
2021/04/14 17:08:01;;;;;;;6.80;3.90;;;;;;;;;;6221154;23;20163;-91
2021/04/14 17:11:08;;;;;;;7.70;3.70;;;;;;;;;;6221918;22;20147;-91
2021/04/14 17:14:14;;;;;;;9.87;4.37;;;;;;;;;;6222112;23;20235;-91
2021/04/14 17:17:21;;;;;;;7.70;4.00;;;;;;;;;;6202577;22;20151;-91
2021/04/14 17:20:27;;;;;;;5.43;3.30;;;;;;;;;;6218660;22;20166;-91
2021/04/14 17:23:32;;;;;;;8.57;3.60;;;;;;;;;;6221135;22;20325;-89
2021/04/14 18:53:21;;;;;;;10.33;4.83;;;;;;;;;;6206703;22;20233;-91
2021/04/14 18:56:26;;;;;;;9.30;3.57;;;;;;;;;;6214631;23;20175;-90
2021/04/14 18:59:32;;;;;;;19.03;7.40;;;;;;;;;;6215695;23;20302;-90
2021/04/14 19:02:41;;;;;;;13.47;5.70;;;;;;;;;;6216531;23;20224;-92
2021/04/14 19:05:45;;;;;;;25.60;6.33;;;;;;;;;;6216897;23;20634;-89
2021/04/14 19:08:56;;;;;;;13.50;6.43;;;;;;;;;;6215712;22;20206;-88
2021/04/14 19:16:13;;;;;;;9.47;4.37;;;;;;;;;;6234112;23;20216;-89
2021/04/14 19:19:18;;;;;;;11.97;4.90;;;;;;;;;;6216790;22;20175;-94
2021/04/14 19:22:32;;;;;;;9.57;4.70;;;;;;;;;;6216432;22;20195;-90
2021/04/14 19:25:40;;;;;;;12.53;5.50;;;;;;;;;;6214445;23;20186;-89
2021/04/14 19:28:45;;;;;;;16.03;6.60;;;;;;;;;;6211777;23;20191;-91
2021/04/14 19:31:49;;;;;;;16.67;6.53;;;;;;;;;;6213648;23;20195;-88
2021/04/14 19:34:54;;;;;;;13.90;6.00;;;;;;;;;;6214012;23;20160;-91
2021/04/14 19:37:59;;;;;;;13.80;6.20;;;;;;;;;;6212629;23;20187;-91
2021/04/14 19:41:06;;;;;;;13.23;6.33;;;;;;;;;;6212778;23;20489;-91
2021/04/14 19:44:13;;;;;;;13.93;6.67;;;;;;;;;;6213690;22;20187;-89
2021/04/14 19:47:19;;;;;;;13.00;6.57;;;;;;;;;;6214282;23;20175;-88
2021/04/14 19:50:25;;;;;;;11.87;6.17;;;;;;;;;;6215927;22;20177;-88
2021/04/14 19:53:32;;;;;;;10.20;5.73;;;;;;;;;;6214309;22;20211;-91
2021/04/14 19:56:38;;;;;;;15.93;6.90;;;;;;;;;;6215355;23;20215;-91
2021/04/14 19:59:43;;;;;;;13.50;6.10;;;;;;;;;;6214998;22;20213;-90
2021/04/14 20:02:50;;;;;;;13.40;6.23;;;;;;;;;;6215033;23;20167;-90
2021/04/14 20:05:54;;;;;;;13.70;7.27;;;;;;;;;;6211357;23;20155;-90
2021/04/14 20:08:59;;;;;;;17.03;7.00;;;;;;;;;;6211301;23;20216;-92
2021/04/14 20:12:06;;;;;;;12.80;6.60;;;;;;;;;;6212491;23;20222;-91
2021/04/14 20:15:38;;;;;;;11.83;5.50;;;;;;;;;;6212250;23;20170;-92
2021/04/14 20:18:43;;;;;;;15.57;6.10;;;;;;;;;;6212727;22;20252;-91
2021/04/14 20:21:48;;;;;;;20.07;6.07;;;;;;;;;;6212107;23;20172;-90
2021/04/14 20:24:53;;;;;;;17.97;7.47;;;;;;;;;;6211423;23;20167;-91
2021/04/14 20:27:59;;;;;;;14.43;7.20;;;;;;;;;;6214261;23;20175;-90
2021/04/14 20:31:04;;;;;;;15.67;7.03;;;;;;;;;;6210611;23;20175;-90
2021/04/14 20:34:09;;;;;;;11.90;5.60;;;;;;;;;;6214195;23;20183;-90
2021/04/14 20:37:13;;;;;;;16.20;6.80;;;;;;;;;;6211168;23;20175;-91
2021/04/14 20:40:20;;;;;;;14.23;5.57;;;;;;;;;;6211675;23;20154;-91
2021/04/14 20:43:25;;;;;;;12.13;6.10;;;;;;;;;;6211072;23;20254;-90
2021/04/14 20:46:30;;;;;;;14.30;6.07;;;;;;;;;;6210730;23;20187;-92
2021/04/14 20:49:35;;;;;;;14.73;6.23;;;;;;;;;;6211386;23;20182;-90
2021/04/14 20:52:41;;;;;;;14.33;6.37;;;;;;;;;;6212160;23;20179;-90
2021/04/14 20:55:46;;;;;;;11.97;5.80;;;;;;;;;;6210572;23;20182;-89
2021/04/14 20:58:52;;;;;;;13.30;5.57;;;;;;;;;;6210326;23;20155;-88
2021/04/14 21:01:57;;;;;;;15.37;6.30;;;;;;;;;;6210292;23;20167;-90
2021/04/14 21:05:01;;;;;;;12.73;6.10;;;;;;;;;;6211015;22;20216;-91
2021/04/14 21:08:06;;;;;;;12.47;6.37;;;;;;;;;;6210853;23;20298;-91
2021/04/14 21:11:12;;;;;;;12.93;6.43;;;;;;;;;;6211201;23;20167;-91
2021/04/14 21:14:18;;;;;;;13.27;6.13;;;;;;;;;;6208757;23;20191;-89
2021/04/14 21:17:23;;;;;;;18.17;6.97;;;;;;;;;;6210019;22;20163;-91
2021/04/14 21:20:30;;;;;;;12.87;6.27;;;;;;;;;;6210005;23;20235;-90
2021/04/14 21:23:35;;;;;;;13.57;7.33;;;;;;;;;;6211019;23;20174;-91
2021/04/14 21:26:40;;;;;;;12.90;6.67;;;;;;;;;;6210800;23;20287;-90
2021/04/14 21:29:47;;;;;;;14.90;7.07;;;;;;;;;;6211975;23;20198;-91
2021/04/14 21:32:53;;;;;;;26.10;7.63;;;;;;;;;;6212729;23;20209;-89
2021/04/14 21:35:58;;;;;;;13.80;7.23;;;;;;;;;;6211333;23;20167;-90
2021/04/14 21:39:03;;;;;;;19.10;8.53;;;;;;;;;;6211798;23;20214;-91
2021/04/14 21:42:07;;;;;;;17.37;8.63;;;;;;;;;;6210102;23;20195;-89
2021/04/14 21:45:13;;;;;;;21.90;10.00;;;;;;;;;;6210319;23;20174;-90
2021/04/14 21:48:18;;;;;;;17.90;8.33;;;;;;;;;;6208278;23;20282;-90
2021/04/14 21:51:22;;;;;;;18.20;7.90;;;;;;;;;;6209276;22;20163;-89
2021/04/14 21:54:27;;;;;;;19.73;8.23;;;;;;;;;;6207639;23;20249;-90
2021/04/14 21:57:32;;;;;;;16.90;8.90;;;;;;;;;;6208516;23;20171;-89
2021/04/14 22:00:39;;;;;;;18.57;8.43;;;;;;;;;;6207550;23;20171;-90
2021/04/14 22:08:05;;;;;;;14.83;7.37;;;;;;;;;;6226626;23;20314;-92
2021/04/14 22:11:10;;;;;;;16.87;8.43;;;;;;;;;;6209012;23;20745;-91
2021/04/14 22:14:15;;;;;;;15.23;7.57;;;;;;;;;;6208360;23;20209;-90
2021/04/14 22:17:21;;;;;;;17.43;7.97;;;;;;;;;;6209255;23;20170;-91
2021/04/14 22:20:26;;;;;;;15.80;7.90;;;;;;;;;;6209279;23;20200;-91
2021/04/14 22:23:31;;;;;;;15.77;7.50;;;;;;;;;;6209512;23;20194;-91
2021/04/14 22:26:36;;;;;;;22.53;8.20;;;;;;;;;;6207836;23;20203;-91
2021/04/14 22:29:41;;;;;;;16.57;7.93;;;;;;;;;;6208119;23;20191;-91
2021/04/14 22:32:47;;;;;;;15.67;7.30;;;;;;;;;;6207744;23;20175;-91
2021/04/14 22:35:52;;;;;;;20.70;10.07;;;;;;;;;;6208912;23;20219;-89
2021/04/14 22:38:56;;;;;;;18.00;7.73;;;;;;;;;;6225294;22;20243;-91
2021/04/14 22:42:01;;;;;;;15.07;7.03;;;;;;;;;;6209441;23;20167;-91
2021/04/14 22:45:06;;;;;;;13.67;7.03;;;;;;;;;;6207867;23;20168;-91
2021/04/14 22:48:14;;;;;;;17.87;7.67;;;;;;;;;;6209546;23;20283;-92
2021/04/14 22:51:18;;;;;;;18.27;8.17;;;;;;;;;;6207953;23;20183;-90
2021/04/14 22:54:22;;;;;;;21.30;8.97;;;;;;;;;;6212969;23;20263;-89
2021/04/14 22:57:27;;;;;;;12.80;6.70;;;;;;;;;;6210928;23;20167;-90
2021/04/14 23:00:34;;;;;;;13.77;7.03;;;;;;;;;;6212385;23;20163;-90
2021/04/14 23:03:40;;;;;;;12.37;6.87;;;;;;;;;;6211522;23;20234;-88
2021/04/14 23:06:45;;;;;;;12.53;6.90;;;;;;;;;;6211401;23;20566;-90
2021/04/14 23:09:50;;;;;;;16.13;6.80;;;;;;;;;;6212302;23;20199;-91
2021/04/14 23:12:54;;;;;;;13.97;6.63;;;;;;;;;;6213587;23;20218;-91
2021/04/14 23:15:59;;;;;;;16.77;6.93;;;;;;;;;;6214127;23;20167;-89
2021/04/14 23:19:05;;;;;;;14.83;6.90;;;;;;;;;;6213577;23;20171;-89
2021/04/14 23:22:10;;;;;;;15.13;7.97;;;;;;;;;;6215643;23;20220;-91
2021/04/14 23:25:15;;;;;;;16.27;7.40;;;;;;;;;;6215571;23;20191;-91
2021/04/14 23:28:21;;;;;;;15.47;7.00;;;;;;;;;;6213953;23;20167;-91
2021/04/14 23:31:26;;;;;;;16.67;7.03;;;;;;;;;;6212537;23;20194;-92
2021/04/14 23:34:32;;;;;;;17.50;7.47;;;;;;;;;;6211415;23;20210;-90
2021/04/14 23:37:37;;;;;;;16.00;7.20;;;;;;;;;;6212654;23;20222;-91
2021/04/14 23:40:42;;;;;;;15.53;7.13;;;;;;;;;;6211509;23;20681;-91
2021/04/14 23:43:47;;;;;;;14.47;6.60;;;;;;;;;;6211921;23;20167;-92